createdAt,value
2019-03-04T00:04:26.093Z,7.23
2019-03-04T00:09:29.750Z,7.67
2019-03-04T00:14:33.477Z,7.00
2019-03-04T00:19:37.088Z,6.90
2019-03-04T00:24:40.737Z,9.23
2019-03-04T00:29:45.704Z,9.17
2019-03-04T00:34:49.336Z,6.27
2019-03-04T00:39:53.005Z,7.67
2019-03-04T00:44:56.644Z,8.37
2019-03-04T00:50:00.314Z,7.37
2019-03-04T00:55:04.223Z,8.43
2019-03-04T01:00:11.951Z,8.60
2019-03-04T01:05:15.586Z,8.20
2019-03-04T01:10:19.511Z,8.00
2019-03-04T01:15:23.132Z,9.27
2019-03-04T01:20:27.014Z,7.17
2019-03-04T01:25:30.692Z,9.00
2019-03-04T01:30:34.394Z,6.27
2019-03-04T01:35:38.096Z,9.00
2019-03-04T01:40:41.746Z,6.40
2019-03-04T01:45:45.398Z,7.30
2019-03-04T01:50:49.230Z,7.80
2019-03-04T01:55:52.894Z,6.60
2019-03-04T02:00:56.591Z,8.47
2019-03-04T02:06:00.330Z,6.93
2019-03-04T02:11:04.047Z,5.77
2019-03-04T02:16:07.755Z,6.50
2019-03-04T02:21:11.986Z,7.43
2019-03-04T02:26:25.037Z,5.97
2019-03-04T02:31:29.036Z,6.90
2019-03-04T02:36:32.715Z,6.07
2019-03-04T02:41:36.371Z,6.00
2019-03-04T02:46:40.057Z,8.33
2019-03-04T02:51:43.826Z,5.67
2019-03-04T02:56:47.813Z,6.33
2019-03-04T03:01:51.507Z,5.33
2019-03-04T03:06:55.195Z,7.30
2019-03-04T03:11:58.860Z,5.83
2019-03-04T03:17:02.608Z,6.70
2019-03-04T03:22:25.571Z,6.00
2019-03-04T03:27:29.398Z,6.03
2019-03-04T03:32:33.086Z,5.87
2019-03-04T03:37:36.936Z,5.10
2019-03-04T03:42:40.605Z,5.30
2019-03-04T03:47:44.317Z,6.70
2019-03-04T03:52:47.956Z,5.23
2019-03-04T03:57:51.696Z,5.73
2019-03-04T04:02:55.869Z,6.80
2019-03-04T04:07:59.638Z,6.20
2019-03-04T04:13:03.409Z,4.70
2019-03-04T04:18:26.399Z,6.80
2019-03-04T04:23:30.120Z,5.27
2019-03-04T04:28:34.088Z,5.93
2019-03-04T04:33:37.839Z,5.57
2019-03-04T04:38:41.549Z,5.17
2019-03-04T04:43:45.185Z,4.27
2019-03-04T04:49:08.209Z,5.00
2019-03-04T04:54:11.949Z,5.37
2019-03-04T04:59:34.979Z,3.93
2019-03-04T05:04:38.641Z,5.00
2019-03-04T05:09:42.301Z,4.37
2019-03-04T05:14:46.110Z,4.50
2019-03-04T05:19:49.878Z,4.50
2019-03-04T05:24:53.865Z,4.87
2019-03-04T05:29:57.515Z,5.67
2019-03-04T05:35:03.271Z,5.67
2019-03-04T05:40:09.221Z,5.60
2019-03-04T05:45:14.238Z,5.17
2019-03-04T05:50:17.976Z,6.73
2019-03-04T05:55:22.097Z,6.53
2019-03-04T06:00:26.596Z,5.20
2019-03-04T06:05:30.561Z,6.70
2019-03-04T06:10:34.279Z,8.07
2019-03-04T06:15:37.968Z,6.70
2019-03-04T06:20:41.715Z,5.77
2019-03-04T06:25:45.401Z,6.50
2019-03-04T06:30:49.428Z,6.10
2019-03-04T06:35:53.280Z,6.40
2019-03-04T06:40:57.133Z,6.90
2019-03-04T06:46:00.829Z,5.77
2019-03-04T06:51:06.529Z,6.30
2019-03-04T06:56:41.911Z,5.03
2019-03-04T07:01:49.726Z,8.73
2019-03-04T07:06:53.477Z,6.80
2019-03-04T07:11:57.121Z,5.50
2019-03-04T07:17:00.879Z,6.37
2019-03-04T07:22:04.696Z,3.90
2019-03-04T07:27:08.492Z,5.30
2019-03-04T07:32:12.190Z,8.30
2019-03-04T07:37:15.913Z,7.83
2019-03-04T07:42:19.573Z,5.57
2019-03-04T07:47:23.476Z,5.10
2019-03-04T07:52:27.142Z,8.87
2019-03-04T07:57:30.951Z,7.93
2019-03-04T08:02:46.782Z,5.40
2019-03-04T08:07:51.633Z,8.10
2019-03-04T08:13:17.530Z,5.33
2019-03-04T08:18:21.214Z,5.53
2019-03-04T08:23:24.952Z,8.63
2019-03-04T08:28:28.955Z,6.23
2019-03-04T08:33:32.704Z,8.80
2019-03-04T08:38:36.430Z,7.23
2019-03-04T08:43:40.102Z,5.97
2019-03-04T08:48:43.805Z,7.83
2019-03-04T08:53:47.548Z,6.17
2019-03-04T08:58:51.199Z,4.80
2019-03-04T09:03:54.887Z,6.00
2019-03-04T09:08:58.568Z,4.30
2019-03-04T09:14:02.317Z,4.30
2019-03-04T09:19:05.998Z,8.23
2019-03-04T09:24:09.667Z,10.17
2019-03-04T09:29:13.304Z,6.33
2019-03-04T09:34:16.976Z,5.83
2019-03-04T09:39:20.776Z,8.57
2019-03-04T09:44:24.423Z,4.87
2019-03-04T09:49:28.215Z,7.03
2019-03-04T09:54:31.964Z,6.40
2019-03-04T09:59:35.647Z,5.30
2019-03-04T10:05:08.489Z,5.93
2019-03-04T10:10:47.154Z,7.90
2019-03-04T10:16:23.949Z,7.73
2019-03-04T10:22:00.569Z,5.20
2019-03-04T10:27:30.948Z,7.20
2019-03-04T10:33:10.219Z,4.63
2019-03-04T10:38:44.700Z,5.00
2019-03-04T10:44:14.633Z,5.80
2019-03-04T10:49:18.721Z,4.57
2019-03-04T10:54:22.644Z,4.40
2019-03-04T10:59:26.343Z,3.80
2019-03-04T11:04:30.053Z,3.90
2019-03-04T11:09:33.751Z,4.67
2019-03-04T11:14:37.601Z,4.33
2019-03-04T11:19:41.360Z,3.70
2019-03-04T11:24:46.953Z,5.60
2019-03-04T11:29:50.595Z,9.83
2019-03-04T11:34:54.288Z,6.17
2019-03-04T11:40:10.442Z,8.63
2019-03-04T11:45:15.443Z,4.73
2019-03-04T11:50:19.266Z,6.60
2019-03-04T11:55:23.874Z,5.47
2019-03-04T12:00:38.612Z,5.50
2019-03-04T12:05:42.398Z,8.30
2019-03-04T12:10:46.197Z,11.53
2019-03-04T12:15:49.825Z,5.70
2019-03-04T12:20:53.507Z,7.90
2019-03-04T12:25:57.321Z,6.60
2019-03-04T12:31:00.988Z,6.37
2019-03-04T12:36:05.056Z,4.30
2019-03-04T12:41:08.796Z,5.90
2019-03-04T12:46:12.482Z,6.43
2019-03-04T12:51:23.043Z,4.67
2019-03-04T12:56:21.511Z,5.73
2019-03-04T13:01:26.796Z,5.30
2019-03-04T13:06:30.569Z,7.80
2019-03-04T13:11:34.372Z,4.17
2019-03-04T13:16:38.051Z,6.33
2019-03-04T13:21:41.814Z,7.60
2019-03-04T13:26:45.513Z,6.17
2019-03-04T13:31:49.313Z,8.90
2019-03-04T13:36:53.978Z,5.20
2019-03-04T13:41:59.971Z,5.47
2019-03-04T13:47:03.669Z,4.87
2019-03-04T13:52:07.448Z,4.87
2019-03-04T13:57:11.232Z,4.00
2019-03-04T14:02:15.293Z,4.33
2019-03-04T14:07:25.337Z,4.97
2019-03-04T14:12:29.247Z,6.23
2019-03-04T14:17:33.255Z,5.60
2019-03-04T14:22:40.259Z,4.20
2019-03-04T14:27:43.939Z,3.90
2019-03-04T14:32:47.629Z,5.27
2019-03-04T14:37:51.620Z,4.47
2019-03-04T14:42:55.463Z,4.43
2019-03-04T14:47:59.232Z,5.63
2019-03-04T14:53:05.346Z,3.30
2019-03-04T14:58:09.280Z,5.20
2019-03-04T15:03:22.124Z,5.50
2019-03-04T15:08:20.390Z,3.77
2019-03-04T15:13:24.198Z,5.00
2019-03-04T15:18:28.090Z,4.77
2019-03-04T15:23:32.029Z,4.60
2019-03-04T15:28:36.154Z,4.30
2019-03-04T15:33:39.933Z,6.80
2019-03-04T15:38:44.057Z,3.53
2019-03-04T15:43:47.844Z,3.50
2019-03-04T15:48:51.722Z,6.00
2019-03-04T15:53:55.454Z,3.63
2019-03-04T15:58:59.193Z,5.50
2019-03-04T16:04:03.351Z,5.13
2019-03-04T16:09:13.528Z,5.27
2019-03-04T16:14:17.449Z,4.30
2019-03-04T16:19:23.539Z,4.30
2019-03-04T16:24:27.269Z,5.60
2019-03-04T16:29:37.131Z,4.97
2019-03-04T16:34:36.965Z,4.57
2019-03-04T16:39:40.676Z,5.40
2019-03-04T16:44:44.436Z,8.43
2019-03-04T16:49:48.246Z,4.40
2019-03-04T16:54:52.129Z,5.33
2019-03-04T16:59:55.918Z,5.43
2019-03-04T17:04:59.859Z,3.10
2019-03-04T17:10:04.261Z,3.60
2019-03-04T17:15:11.335Z,3.83
2019-03-04T17:20:34.299Z,4.03
2019-03-04T17:25:38.174Z,5.97
2019-03-04T17:30:41.886Z,4.47
2019-03-04T17:35:46.725Z,4.93
2019-03-04T17:40:50.402Z,5.70
2019-03-04T17:45:54.242Z,5.40
2019-03-04T17:50:58.311Z,4.50
2019-03-04T17:56:02.139Z,3.90
2019-03-04T18:01:05.952Z,4.43
2019-03-04T18:06:09.582Z,3.50
2019-03-04T18:11:13.285Z,4.53
2019-03-04T18:16:20.643Z,3.50
2019-03-04T18:21:24.317Z,3.70
2019-03-04T18:26:32.692Z,3.50
2019-03-04T18:31:55.885Z,4.87
2019-03-04T18:37:43.409Z,6.00
2019-03-04T18:43:24.837Z,6.70
2019-03-04T18:48:59.839Z,6.97
2019-03-04T18:54:17.721Z,5.50
2019-03-04T18:59:21.434Z,4.53
2019-03-04T19:04:25.159Z,4.40
2019-03-04T19:09:28.910Z,5.13
2019-03-04T19:14:32.666Z,5.77
2019-03-04T19:19:36.341Z,7.40
2019-03-04T19:24:40.083Z,5.83
2019-03-04T19:29:43.802Z,9.60
2019-03-04T19:34:47.452Z,11.63
2019-03-04T19:39:51.251Z,6.37
2019-03-04T19:44:55.002Z,11.23
2019-03-04T19:49:59.276Z,10.83
2019-03-04T19:55:03.097Z,11.40
2019-03-04T20:00:09.100Z,14.60
2019-03-04T20:05:12.862Z,15.73
2019-03-04T20:10:16.718Z,15.87
2019-03-04T20:15:21.755Z,11.53
2019-03-04T20:20:25.473Z,14.17
2019-03-04T20:25:29.241Z,11.00
2019-03-04T20:30:32.899Z,12.13
2019-03-04T20:35:36.597Z,13.83
2019-03-04T20:40:40.320Z,11.93
2019-03-04T20:45:44.224Z,11.03
2019-03-04T20:50:47.970Z,10.63
2019-03-04T20:55:51.687Z,10.60
2019-03-04T21:00:55.610Z,11.07
2019-03-04T21:05:59.416Z,15.27
2019-03-04T21:11:03.131Z,17.30
2019-03-04T21:16:06.813Z,13.37
2019-03-04T21:21:10.996Z,13.20
2019-03-04T21:26:26.970Z,13.00
2019-03-04T21:31:40.943Z,11.93
2019-03-04T21:37:01.121Z,14.87
2019-03-04T21:42:25.821Z,14.90
2019-03-04T21:47:38.369Z,12.87
2019-03-04T21:53:02.226Z,20.60
2019-03-04T21:58:05.963Z,14.80
2019-03-04T22:03:20.394Z,13.80
2019-03-04T22:08:26.220Z,8.53
2019-03-04T22:13:29.988Z,9.47
2019-03-04T22:18:33.653Z,8.03
2019-03-04T22:23:37.389Z,8.63
2019-03-04T22:28:41.101Z,10.60
2019-03-04T22:33:44.839Z,9.37
2019-03-04T22:38:48.581Z,11.33
2019-03-04T22:43:52.369Z,12.27
2019-03-04T22:48:56.068Z,8.93
2019-03-04T22:53:59.797Z,11.83
2019-03-04T22:59:03.528Z,12.83
2019-03-04T23:04:31.059Z,9.87
2019-03-04T23:09:45.346Z,11.07
2019-03-04T23:14:49.548Z,10.63
2019-03-04T23:19:53.297Z,9.27
2019-03-04T23:24:56.925Z,10.33
2019-03-04T23:30:00.592Z,9.87
2019-03-04T23:35:04.682Z,9.20
2019-03-04T23:40:09.472Z,10.30
2019-03-04T23:45:17.830Z,9.17
2019-03-04T23:50:22.774Z,8.57
2019-03-04T23:55:26.629Z,10.97
